createdAt,value
2023-04-15T00:00:18.411Z,99959.94
2023-04-15T00:03:21.942Z,99955.84
2023-04-15T00:06:24.068Z,99950.16
2023-04-15T00:09:25.651Z,99950.47
2023-04-15T00:12:27.964Z,99957.31
2023-04-15T00:15:29.835Z,99959.06
2023-04-15T00:18:31.780Z,99957.09
2023-04-15T00:21:34.116Z,99944.97
2023-04-15T00:24:35.956Z,99949.16
2023-04-15T00:27:38.637Z,99933.66
2023-04-15T00:30:40.709Z,99939.75
2023-04-15T00:33:42.551Z,99937.13
2023-04-15T00:36:44.786Z,99934.19
2023-04-15T00:39:47.104Z,99937.13
2023-04-15T00:42:48.934Z,99931.84
2023-04-15T00:45:53.672Z,99932.97
2023-04-15T00:48:56.227Z,99932.13
2023-04-15T00:51:57.919Z,99923.25
2023-04-15T00:55:00.081Z,99927.53
2023-04-15T00:58:02.123Z,99933.38
2023-04-15T01:01:04.736Z,99920.69
2023-04-15T01:04:07.168Z,99923.94
2023-04-15T01:07:09.310Z,99920.84
2023-04-15T01:10:11.319Z,99917.16
2023-04-15T01:13:13.105Z,99934.19
2023-04-15T01:16:15.105Z,99928.38
2023-04-15T01:19:18.090Z,99929.06
2023-04-15T01:22:19.808Z,99922.22
2023-04-15T01:25:34.946Z,99922.72
2023-04-15T01:28:37.772Z,99920.13
2023-04-15T01:31:40.205Z,99915.41
2023-04-15T01:34:42.321Z,99907.72
2023-04-15T01:37:44.246Z,99916.22
2023-04-15T01:40:46.160Z,99912.75
2023-04-15T01:43:48.847Z,99914.69
2023-04-15T01:46:50.489Z,99906.28
2023-04-15T01:49:52.716Z,99908.25
2023-04-15T01:52:54.349Z,99910.72
2023-04-15T01:55:56.332Z,99904.53
2023-04-15T01:58:58.272Z,99902.78
2023-04-15T02:02:00.595Z,99902.06
2023-04-15T02:05:02.561Z,99905.84
2023-04-15T02:08:04.326Z,99910.63
2023-04-15T02:11:06.242Z,99901.66
2023-04-15T02:14:07.935Z,99901.34
2023-04-15T02:17:09.699Z,99894.44
2023-04-15T02:20:12.055Z,99898.53
2023-04-15T02:23:13.922Z,99896.69
2023-04-15T02:26:18.864Z,99887.13
2023-04-15T02:29:20.477Z,99887.63
2023-04-15T02:32:24.556Z,99882.38
2023-04-15T02:35:26.832Z,99877.00
2023-04-15T02:38:31.074Z,99873.06
2023-04-15T02:41:33.033Z,99887.50
2023-04-15T02:44:36.547Z,99888.53
2023-04-15T02:47:46.854Z,99894.63
2023-04-15T02:50:48.528Z,99892.97
2023-04-15T02:53:51.683Z,99892.28
2023-04-15T02:56:55.612Z,99892.16
2023-04-15T02:59:57.643Z,99897.28
2023-04-15T03:03:04.801Z,99897.72
2023-04-15T03:06:07.134Z,99905.22
2023-04-15T03:09:09.619Z,99901.84
2023-04-15T03:12:12.506Z,99899.25
2023-04-15T03:15:14.523Z,99905.75
2023-04-15T03:18:19.983Z,99906.84
2023-04-15T03:21:21.784Z,99906.03
2023-04-15T03:24:24.817Z,99901.94
2023-04-15T03:27:27.966Z,99899.31
2023-04-15T03:30:34.285Z,99900.66
2023-04-15T03:33:36.155Z,99898.81
2023-04-15T03:36:37.747Z,99888.31
2023-04-15T03:39:39.383Z,99892.78
2023-04-15T03:42:41.912Z,99891.81
2023-04-15T03:45:43.716Z,99892.28
2023-04-15T03:48:45.436Z,99897.81
2023-04-15T03:51:47.151Z,99891.97
2023-04-15T03:54:48.836Z,99901.72
2023-04-15T03:57:50.581Z,99895.94
2023-04-15T04:00:52.640Z,99902.56
2023-04-15T04:03:54.535Z,99904.28
2023-04-15T04:06:56.343Z,99896.28
2023-04-15T04:09:58.243Z,99900.63
2023-04-15T04:13:00.021Z,99902.97
2023-04-15T04:16:02.047Z,99901.34
2023-04-15T04:19:03.975Z,99901.88
2023-04-15T04:22:06.507Z,99907.50
2023-04-15T04:25:10.363Z,99906.28
2023-04-15T04:28:12.331Z,99913.28
2023-04-15T04:31:14.254Z,99908.16
2023-04-15T04:34:16.536Z,99911.84
2023-04-15T04:37:18.449Z,99914.69
2023-04-15T04:40:20.121Z,99917.38
2023-04-15T04:43:22.492Z,99914.72
2023-04-15T04:46:24.230Z,99919.53
2023-04-15T04:49:26.271Z,99915.13
2023-04-15T04:52:28.189Z,99926.84
2023-04-15T04:55:30.600Z,99921.50
2023-04-15T04:58:32.304Z,99908.16
2023-04-15T05:01:34.325Z,99921.31
2023-04-15T05:04:37.125Z,99919.47
2023-04-15T05:07:39.652Z,99914.00
2023-04-15T05:10:41.298Z,99912.81
2023-04-15T05:13:43.048Z,99915.97
2023-04-15T05:16:44.772Z,99920.50
2023-04-15T05:19:46.633Z,99927.25
2023-04-15T05:22:48.590Z,99928.69
2023-04-15T05:25:50.349Z,99925.63
2023-04-15T05:28:52.087Z,99923.25
2023-04-15T05:31:53.784Z,99934.31
2023-04-15T05:34:55.706Z,99923.34
2023-04-15T05:37:57.545Z,99929.28
2023-04-15T05:40:59.376Z,99933.38
2023-04-15T05:44:02.022Z,99934.41
2023-04-15T05:47:03.746Z,99934.41
2023-04-15T05:50:06.673Z,99933.28
2023-04-15T05:53:09.098Z,99932.47
2023-04-15T05:56:10.810Z,99930.81
2023-04-15T05:59:12.739Z,99930.81
2023-04-15T06:02:14.649Z,99923.25
2023-04-15T06:05:16.341Z,99936.91
2023-04-15T06:08:19.472Z,99940.28
2023-04-15T06:11:22.030Z,99927.00
2023-04-15T06:14:23.843Z,99933.19
2023-04-15T06:17:25.641Z,99936.19
2023-04-15T06:20:28.075Z,99928.75
2023-04-15T06:23:30.028Z,99930.00
2023-04-15T06:26:31.825Z,99936.81
2023-04-15T06:29:33.596Z,99932.25
2023-04-15T06:32:35.464Z,99932.56
2023-04-15T06:35:37.294Z,99936.28
2023-04-15T06:38:39.021Z,99940.06
2023-04-15T06:41:40.806Z,99936.91
2023-04-15T06:44:42.544Z,99929.69
2023-04-15T06:47:44.235Z,99931.94
2023-04-15T06:50:46.405Z,99931.94
2023-04-15T06:53:48.380Z,99932.84
2023-04-15T06:56:53.708Z,99937.81
2023-04-15T06:59:55.567Z,99943.13
2023-04-15T07:02:57.353Z,99939.22
2023-04-15T07:05:59.067Z,99950.66
2023-04-15T07:09:01.969Z,99947.41
2023-04-15T07:12:04.445Z,99940.97
2023-04-15T07:15:07.152Z,99932.22
2023-04-15T07:18:09.949Z,99925.53
2023-04-15T07:21:12.008Z,99931.19
2023-04-15T07:24:18.021Z,99940.91
2023-04-15T07:27:19.862Z,99951.03
2023-04-15T07:30:21.737Z,99954.03
2023-04-15T07:33:23.962Z,99962.16
2023-04-15T07:36:26.092Z,99977.34
2023-04-15T07:39:27.845Z,99963.34
2023-04-15T07:42:29.764Z,99967.47
2023-04-15T07:45:32.231Z,99968.28
2023-04-15T07:48:35.530Z,99969.19
2023-04-15T07:51:38.552Z,99976.50
2023-04-15T07:54:40.457Z,99973.59
2023-04-15T07:57:42.486Z,99969.88
2023-04-15T08:00:44.834Z,99978.78
2023-04-15T08:03:47.457Z,99978.25
2023-04-15T08:06:50.432Z,99979.91
2023-04-15T08:09:52.510Z,99984.34
2023-04-15T08:12:57.792Z,99986.69
2023-04-15T08:16:19.563Z,99995.44
2023-04-15T08:19:21.887Z,99989.56
2023-04-15T08:22:24.283Z,99996.97
2023-04-15T08:25:26.576Z,99991.81
2023-04-15T08:28:30.639Z,99992.00
2023-04-15T08:31:32.625Z,99997.03
2023-04-15T08:34:35.055Z,99993.28
2023-04-15T08:37:36.968Z,99997.63
2023-04-15T08:40:46.220Z,99989.19
2023-04-15T08:44:02.378Z,99988.59
2023-04-15T08:47:08.030Z,99997.72
2023-04-15T08:50:11.108Z,99997.94
2023-04-15T08:53:13.304Z,99990.34
2023-04-15T08:56:20.363Z,99991.53
2023-04-15T08:59:22.590Z,99994.34
2023-04-15T09:02:26.571Z,99997.31
2023-04-15T09:05:33.119Z,99993.91
2023-04-15T09:08:35.905Z,100004.41
2023-04-15T09:11:38.074Z,100003.50
2023-04-15T09:14:47.375Z,100004.91
2023-04-15T09:17:49.060Z,100008.97
2023-04-15T09:20:53.781Z,100012.78
2023-04-15T09:23:58.392Z,100007.44
2023-04-15T09:27:00.565Z,100010.91
2023-04-15T09:30:02.373Z,100014.19
2023-04-15T09:33:13.760Z,100023.06
2023-04-15T09:36:15.681Z,100027.06
2023-04-15T09:39:17.432Z,100032.13
2023-04-15T09:42:29.060Z,100034.56
2023-04-15T09:45:32.049Z,100038.88
2023-04-15T09:48:33.811Z,100044.03
2023-04-15T09:51:36.610Z,100029.22
2023-04-15T09:54:41.665Z,100047.34
2023-04-15T09:57:44.692Z,100044.78
2023-04-15T10:00:49.337Z,100038.09
2023-04-15T10:03:52.260Z,100046.00
2023-04-15T10:06:54.453Z,100051.53
2023-04-15T10:09:56.645Z,100055.72
2023-04-15T10:12:58.200Z,100058.31
2023-04-15T10:16:02.693Z,100050.72
2023-04-15T10:19:07.025Z,100053.78
2023-04-15T10:22:09.176Z,100050.88
2023-04-15T10:25:12.172Z,100054.16
2023-04-15T10:28:15.590Z,100050.53
2023-04-15T10:31:31.037Z,100054.50
2023-04-15T10:34:33.626Z,100060.03
2023-04-15T10:37:37.771Z,100060.50
2023-04-15T10:40:40.025Z,100058.88
2023-04-15T10:44:02.796Z,100065.91
2023-04-15T10:47:19.081Z,100067.28
2023-04-15T10:50:22.529Z,100065.34
2023-04-15T10:53:32.282Z,100057.28
2023-04-15T10:56:34.485Z,100062.19
2023-04-15T10:59:38.044Z,100058.47
2023-04-15T11:02:45.812Z,100064.75
2023-04-15T11:05:54.455Z,100057.66
2023-04-15T11:08:59.283Z,100065.28
2023-04-15T11:12:09.032Z,100060.94
2023-04-15T11:15:37.781Z,100069.72
2023-04-15T11:18:39.677Z,100070.53
2023-04-15T11:21:41.850Z,100069.97
2023-04-15T11:24:52.454Z,100085.44
2023-04-15T11:27:55.408Z,100080.88
2023-04-15T11:30:58.581Z,100077.94
2023-04-15T11:34:02.469Z,100078.88
2023-04-15T11:37:08.012Z,100078.41
2023-04-15T11:40:12.993Z,100086.59
2023-04-15T11:43:22.567Z,100087.56
2023-04-15T11:46:32.159Z,100086.63
2023-04-15T11:49:35.239Z,100085.34
2023-04-15T11:52:37.196Z,100090.88
2023-04-15T11:55:44.899Z,100101.19
2023-04-15T11:58:47.329Z,100100.69
2023-04-15T12:01:50.125Z,100096.69
2023-04-15T12:05:02.788Z,100109.00
2023-04-15T12:08:07.594Z,100103.94
2023-04-15T12:11:09.514Z,100108.41
2023-04-15T12:14:32.723Z,100110.88
2023-04-15T12:17:51.070Z,100118.16
2023-04-15T12:20:54.597Z,100126.72
2023-04-15T12:23:58.127Z,100128.22
2023-04-15T12:27:05.020Z,100133.84
2023-04-15T12:30:07.972Z,100139.16
2023-04-15T12:33:10.435Z,100136.44
2023-04-15T12:36:12.026Z,100147.16
2023-04-15T12:39:13.832Z,100150.88
2023-04-15T12:42:16.950Z,100149.47
2023-04-15T12:45:18.599Z,100161.78
2023-04-15T12:48:20.621Z,100161.44
2023-04-15T12:51:22.420Z,100171.16
2023-04-15T12:54:24.108Z,100167.41
2023-04-15T12:57:26.027Z,100177.50
2023-04-15T13:00:28.110Z,100178.75
2023-04-15T13:03:33.020Z,100174.56
2023-04-15T13:06:35.215Z,100172.47
2023-04-15T13:09:36.922Z,100177.69
2023-04-15T13:12:38.475Z,100186.88
2023-04-15T13:15:40.758Z,100184.03
2023-04-15T13:18:42.320Z,100194.16
2023-04-15T13:21:44.114Z,100197.53
2023-04-15T13:24:46.129Z,100200.13
2023-04-15T13:27:48.308Z,100196.56
2023-04-15T13:30:50.502Z,100196.06
2023-04-15T13:33:52.528Z,100200.34
2023-04-15T13:36:54.436Z,100197.88
2023-04-15T13:39:57.058Z,100198.72
2023-04-15T13:42:58.995Z,100206.66
2023-04-15T13:46:01.405Z,100204.19
2023-04-15T13:49:03.663Z,100206.41
2023-04-15T13:52:05.772Z,100208.94
2023-04-15T13:55:20.603Z,100205.72
2023-04-15T13:58:25.915Z,100202.44
2023-04-15T14:01:27.945Z,100208.75
2023-04-15T14:04:31.718Z,100200.09
2023-04-15T14:07:33.560Z,100202.81
2023-04-15T14:10:35.521Z,100207.56
2023-04-15T14:13:37.534Z,100205.00
2023-04-15T14:16:39.568Z,100212.19
2023-04-15T14:19:41.491Z,100202.19
2023-04-15T14:22:43.661Z,100213.31
2023-04-15T14:25:47.947Z,100218.19
2023-04-15T14:28:50.585Z,100231.44
2023-04-15T14:32:11.052Z,100239.72
2023-04-15T14:35:15.708Z,100235.69
2023-04-15T14:38:17.659Z,100235.66
2023-04-15T14:41:19.681Z,100232.69
2023-04-15T14:44:21.583Z,100233.28
2023-04-15T14:47:23.641Z,100244.59
2023-04-15T14:50:26.015Z,100241.16
2023-04-15T14:53:29.288Z,100243.34
2023-04-15T14:56:31.402Z,100251.25
2023-04-15T14:59:34.901Z,100239.94
2023-04-15T15:02:39.907Z,100242.81
2023-04-15T15:05:44.811Z,100241.47
2023-04-15T15:08:46.502Z,100245.97
2023-04-15T15:11:48.461Z,100247.31
2023-04-15T15:14:50.311Z,100262.50
2023-04-15T15:17:52.270Z,100257.44
2023-04-15T15:20:54.093Z,100258.66
2023-04-15T15:23:55.992Z,100252.81
2023-04-15T15:26:57.839Z,100256.06
2023-04-15T15:29:59.849Z,100259.75
2023-04-15T15:33:01.648Z,100253.59
2023-04-15T15:36:04.825Z,100264.94
2023-04-15T15:39:24.388Z,100263.44
2023-04-15T15:42:37.463Z,100270.22
2023-04-15T15:45:41.050Z,100271.16
2023-04-15T15:48:43.365Z,100282.09
2023-04-15T15:51:46.755Z,100282.97
2023-04-15T15:54:49.268Z,100287.34
2023-04-15T15:57:52.105Z,100291.59
2023-04-15T16:00:55.416Z,100298.00
2023-04-15T16:03:57.806Z,100287.63
2023-04-15T16:06:59.793Z,100298.53
2023-04-15T16:10:01.646Z,100300.41
2023-04-15T16:13:03.524Z,100293.31
2023-04-15T16:16:05.424Z,100304.50
2023-04-15T16:19:07.312Z,100303.44
2023-04-15T16:22:09.128Z,100310.03
2023-04-15T16:25:14.140Z,100317.00
2023-04-15T16:28:25.781Z,100314.38
2023-04-15T16:31:28.637Z,100318.19
2023-04-15T16:34:30.389Z,100323.13
2023-04-15T16:37:33.329Z,100317.13
2023-04-15T16:40:35.213Z,100327.50
2023-04-15T16:43:37.121Z,100324.22
2023-04-15T16:46:40.851Z,100331.75
2023-04-15T16:49:42.923Z,100335.44
2023-04-15T16:52:44.751Z,100336.75
2023-04-15T16:55:46.869Z,100339.00
2023-04-15T16:58:48.593Z,100351.16
2023-04-15T17:01:50.704Z,100345.19
2023-04-15T17:04:52.532Z,100352.06
2023-04-15T17:07:55.165Z,100364.13
2023-04-15T17:11:06.652Z,100365.25
2023-04-15T17:14:09.119Z,100373.28
2023-04-15T17:17:13.239Z,100381.31
2023-04-15T17:20:17.413Z,100388.19
2023-04-15T17:23:22.400Z,100398.63
2023-04-15T17:26:24.412Z,100399.09
2023-04-15T17:29:26.308Z,100412.97
2023-04-15T17:32:34.886Z,100417.69
2023-04-15T17:35:36.903Z,100414.88
2023-04-15T17:38:39.052Z,100413.94
2023-04-15T17:41:41.104Z,100416.63
2023-04-15T17:44:42.888Z,100417.69
2023-04-15T17:47:44.952Z,100425.34
2023-04-15T17:50:56.179Z,100425.56
2023-04-15T17:53:57.920Z,100430.38
2023-04-15T17:57:01.379Z,100434.69
2023-04-15T18:00:03.404Z,100436.72
2023-04-15T18:03:14.847Z,100446.50
2023-04-15T18:06:16.977Z,100442.06
2023-04-15T18:09:19.849Z,100451.34
2023-04-15T18:12:21.632Z,100447.78
2023-04-15T18:15:23.327Z,100452.25
2023-04-15T18:18:25.136Z,100456.50
2023-04-15T18:21:27.116Z,100454.03
2023-04-15T18:24:28.957Z,100456.63
2023-04-15T18:27:32.404Z,100459.09
2023-04-15T18:30:34.187Z,100462.13
2023-04-15T18:33:36.196Z,100473.44
2023-04-15T18:36:38.046Z,100476.38
2023-04-15T18:39:40.132Z,100475.91
2023-04-15T18:42:41.993Z,100492.50
2023-04-15T18:45:44.021Z,100494.00
2023-04-15T18:48:46.499Z,100495.44
2023-04-15T18:51:48.376Z,100492.50
2023-04-15T18:54:49.959Z,100496.59
2023-04-15T18:57:51.750Z,100507.53
2023-04-15T19:00:53.858Z,100512.59
2023-04-15T19:03:55.625Z,100513.63
2023-04-15T19:06:58.848Z,100506.72
2023-04-15T19:10:00.797Z,100524.34
2023-04-15T19:13:04.335Z,100524.94
2023-04-15T19:16:06.694Z,100531.97
2023-04-15T19:19:08.652Z,100534.94
2023-04-15T19:22:10.571Z,100537.63
2023-04-15T19:25:12.369Z,100537.63
2023-04-15T19:28:14.243Z,100543.97
2023-04-15T19:31:17.181Z,100555.84
2023-04-15T19:34:19.063Z,100561.38
2023-04-15T19:37:20.808Z,100563.97
2023-04-15T19:40:22.759Z,100563.84
2023-04-15T19:43:24.969Z,100562.88
2023-04-15T19:46:27.907Z,100570.66
2023-04-15T19:49:30.407Z,100573.22
2023-04-15T19:52:32.242Z,100572.19
2023-04-15T19:55:33.953Z,100573.22
2023-04-15T19:58:35.732Z,100574.91
2023-04-15T20:01:37.425Z,100570.53
2023-04-15T20:04:39.666Z,100573.00
2023-04-15T20:07:47.648Z,100569.25
2023-04-15T20:10:49.502Z,100578.25
2023-04-15T20:13:51.312Z,100580.75
2023-04-15T20:16:52.990Z,100586.00
2023-04-15T20:19:54.660Z,100592.31
2023-04-15T20:22:56.484Z,100591.41
2023-04-15T20:25:58.345Z,100591.16
2023-04-15T20:29:00.507Z,100593.16
2023-04-15T20:32:02.497Z,100601.75
2023-04-15T20:35:05.664Z,100595.06
2023-04-15T20:38:07.320Z,100595.22
2023-04-15T20:41:09.034Z,100592.84
2023-04-15T20:44:10.890Z,100588.59
2023-04-15T20:47:12.792Z,100585.06
2023-04-15T20:50:14.725Z,100595.00
2023-04-15T20:53:16.640Z,100602.59
2023-04-15T20:56:18.524Z,100610.09
2023-04-15T20:59:20.647Z,100613.19
2023-04-15T21:02:24.195Z,100613.34
2023-04-15T21:05:26.094Z,100609.03
2023-04-15T21:08:30.021Z,100615.03
2023-04-15T21:11:53.271Z,100624.84
2023-04-15T21:14:53.905Z,100620.38
2023-04-15T21:17:55.873Z,100623.25
2023-04-15T21:20:59.082Z,100629.78
2023-04-15T21:24:00.891Z,100629.53
2023-04-15T21:27:02.712Z,100630.66
2023-04-15T21:30:04.750Z,100636.91
2023-04-15T21:33:06.740Z,100649.13
2023-04-15T21:36:08.751Z,100653.59
2023-04-15T21:39:10.930Z,100653.81
2023-04-15T21:42:12.744Z,100655.22
2023-04-15T21:45:14.897Z,100652.88
2023-04-15T21:48:16.739Z,100665.50
2023-04-15T21:51:18.482Z,100667.47
2023-04-15T21:54:20.479Z,100664.56
2023-04-15T21:57:22.139Z,100667.91
2023-04-15T22:00:24.359Z,100674.22
2023-04-15T22:03:29.406Z,100674.31
2023-04-15T22:06:32.387Z,100683.22
2023-04-15T22:09:34.159Z,100680.63
2023-04-15T22:12:36.223Z,100676.72
2023-04-15T22:15:41.575Z,100675.06
2023-04-15T22:18:43.301Z,100682.94
2023-04-15T22:21:46.241Z,100682.28
2023-04-15T22:24:48.086Z,100682.28
2023-04-15T22:27:49.803Z,100687.38
2023-04-15T22:30:54.223Z,100695.13
2023-04-15T22:33:56.343Z,100691.63
2023-04-15T22:36:57.979Z,100696.16
2023-04-15T22:39:59.856Z,100704.59
2023-04-15T22:43:01.673Z,100701.22
2023-04-15T22:46:03.367Z,100711.22
2023-04-15T22:49:11.045Z,100715.13
2023-04-15T22:52:23.343Z,100723.19
2023-04-15T22:55:31.631Z,100724.00
2023-04-15T22:58:33.308Z,100732.22
2023-04-15T23:01:35.394Z,100732.53
2023-04-15T23:04:37.312Z,100739.44
2023-04-15T23:07:39.131Z,100737.59
2023-04-15T23:10:41.095Z,100737.06
2023-04-15T23:13:42.673Z,100741.94
2023-04-15T23:16:45.468Z,100753.81
2023-04-15T23:19:47.132Z,100755.75
2023-04-15T23:22:48.795Z,100755.94
2023-04-15T23:25:50.762Z,100764.03
2023-04-15T23:28:52.459Z,100763.84
2023-04-15T23:31:54.374Z,100767.97
2023-04-15T23:34:56.018Z,100765.19
2023-04-15T23:37:57.683Z,100768.28
2023-04-15T23:40:59.261Z,100763.84
2023-04-15T23:44:01.064Z,100762.09
2023-04-15T23:47:02.807Z,100766.75
2023-04-15T23:50:05.298Z,100761.97
2023-04-15T23:53:06.910Z,100763.13
2023-04-15T23:56:08.724Z,100763.84
2023-04-15T23:59:10.697Z,100764.66
